Time;durP1;ratioP1;P1;durP2;ratioP2;P2;SDS_P1;SDS_P2;PMS_P1;PMS_P2;Temp;Humidity;BMP_temperature;BMP_pressure;BME280_temperature;BME280_humidity;BME280_pressure;Samples;Min_cycle;Max_cycle;Signal;HPM_P1;HPM_P2
2023/04/09 00:01:36;;;;;;;0.70;0.70;;;;;;;8.18;100.00;100597.81;5051291;28;20223;-75
2023/04/09 00:04:03;;;;;;;0.70;0.70;;;;;;;8.16;100.00;100607.22;5050773;28;20214;-74
2023/04/09 00:06:31;;;;;;;0.60;0.60;;;;;;;8.14;100.00;100600.25;5040713;28;20196;-75
2023/04/09 00:08:57;;;;;;;0.60;0.60;;;;;;;8.08;100.00;100598.34;5050776;28;20573;-75
2023/04/09 00:11:24;;;;;;;0.70;0.70;;;;;;;7.95;100.00;100584.13;5050977;28;20545;-76
2023/04/09 00:13:51;;;;;;;0.80;0.80;;;;;;;8.02;100.00;100598.16;5050509;28;20222;-76
2023/04/09 00:16:18;;;;;;;0.50;0.50;;;;;;;7.92;100.00;100585.75;5050734;28;20634;-76
2023/04/09 00:18:45;;;;;;;1.07;1.07;;;;;;;7.98;100.00;100598.88;5050797;28;20662;-74
2023/04/09 00:21:11;;;;;;;0.90;0.90;;;;;;;7.95;100.00;100596.19;5051102;28;20199;-74
2023/04/09 00:23:40;;;;;;;0.80;0.80;;;;;;;7.99;100.00;100591.16;5015651;28;20211;-75
2023/04/09 00:26:07;;;;;;;0.77;0.77;;;;;;;7.95;100.00;100596.19;5050567;28;20568;-75
2023/04/09 00:28:34;;;;;;;0.73;0.73;;;;;;;7.92;100.00;100591.78;5049978;28;20208;-76
2023/04/09 00:31:01;;;;;;;0.70;0.70;;;;;;;7.94;100.00;100589.25;5050492;28;20199;-75
2023/04/09 00:33:28;;;;;;;0.70;0.70;;;;;;;7.95;100.00;100596.19;5031872;28;20253;-75
2023/04/09 00:35:55;;;;;;;0.70;0.70;;;;;;;7.87;100.00;100582.13;5050540;28;20199;-75
2023/04/09 00:38:22;;;;;;;0.63;0.63;;;;;;;7.96;100.00;100595.34;5053324;28;20594;-75
2023/04/09 00:40:51;;;;;;;0.80;0.80;;;;;;;7.95;100.00;100583.28;5054849;28;20195;-76
2023/04/09 00:43:18;;;;;;;0.70;0.70;;;;;;;7.98;100.00;100596.28;5054406;28;20195;-74
2023/04/09 00:45:45;;;;;;;0.80;0.80;;;;;;;8.04;100.00;100599.06;5054436;28;20196;-75
2023/04/09 00:48:13;;;;;;;0.90;0.90;;;;;;;7.95;100.00;100578.13;5054766;28;20242;-76
2023/04/09 00:50:40;;;;;;;0.67;0.67;;;;;;;7.99;100.00;100585.13;5054709;28;20199;-75
2023/04/09 00:53:07;;;;;;;0.73;0.73;;;;;;;6.97;100.00;100397.63;5054379;28;20223;-74
2023/04/09 00:55:34;;;;;;;0.70;0.70;;;;;;;8.04;100.00;100581.00;5054350;28;20655;-75
2023/04/09 00:58:03;;;;;;;0.73;0.73;;;;;;;8.06;100.00;100579.34;5054845;28;20628;-75
2023/04/09 01:00:29;;;;;;;0.73;0.73;;;;;;;8.02;100.00;100582.66;5054198;28;20292;-75
2023/04/09 01:02:58;;;;;;;0.60;0.60;;;;;;;8.04;100.00;100581.00;5046309;28;20248;-75
2023/04/09 01:05:29;;;;;;;0.70;0.70;;;;;;;8.12;100.00;100591.56;5054465;28;20196;-75
2023/04/09 01:08:06;;;;;;;1.40;1.40;;;;;;;8.14;100.00;100587.31;5054756;28;20219;-75
2023/04/09 01:10:37;;;;;;;0.80;0.80;;;;;;;7.97;100.00;100563.53;5053659;28;20203;-75
2023/04/09 01:13:12;;;;;;;0.60;0.60;;;;;;;8.11;100.00;100585.53;5054327;28;20797;-75
2023/04/09 01:15:44;;;;;;;0.80;0.80;;;;;;;8.02;100.00;100564.59;5054313;28;20282;-75
2023/04/09 01:18:18;;;;;;;0.80;0.80;;;;;;;8.06;100.00;100581.06;5053635;28;20261;-75
2023/04/09 01:20:52;;;;;;;0.80;0.80;;;;;;;8.05;100.00;100580.19;5053921;28;20195;-75
2023/04/09 01:23:32;;;;;;;0.80;0.80;;;;;;;7.98;100.00;100566.19;5053790;28;20195;-75
2023/04/09 01:26:07;;;;;;;0.73;0.73;;;;;;;8.01;100.00;100583.47;5053660;28;20231;-75
2023/04/09 01:28:39;;;;;;;0.80;0.80;;;;;;;7.92;100.00;100562.50;5054264;28;20210;-74
2023/04/09 01:31:12;;;;;;;0.70;0.70;;;;;;;8.00;100.00;100594.63;5055020;28;20620;-75
2023/04/09 01:33:39;;;;;;;0.70;0.70;;;;;;;7.83;100.00;100588.03;5055344;28;20285;-76
2023/04/09 01:36:07;;;;;;;0.70;0.70;;;;;;;7.66;100.00;100584.00;5047167;28;20207;-76
2023/04/09 01:38:36;;;;;;;0.60;0.60;;;;;;;7.60;100.00;100576.06;5018257;28;20204;-75
2023/04/09 01:41:04;;;;;;;0.80;0.80;;;;;;;7.67;100.00;100580.59;5057524;28;20196;-75
2023/04/09 01:43:32;;;;;;;0.70;0.70;;;;;;;7.77;100.00;100593.88;5057644;28;20215;-74
2023/04/09 01:46:02;;;;;;;0.83;0.83;;;;;;;7.66;100.00;100571.09;5059872;28;20195;-75
2023/04/09 01:48:29;;;;;;;0.80;0.80;;;;;;;7.64;100.00;100586.50;5058652;28;20310;-76
2023/04/09 01:50:56;;;;;;;1.10;1.10;;;;;;;7.62;100.00;100580.44;5052923;28;20678;-75
2023/04/09 01:53:27;;;;;;;0.70;0.70;;;;;;;7.61;100.00;100580.38;5053434;28;20238;-75
2023/04/09 01:55:53;;;;;;;0.77;0.77;;;;;;;7.56;100.00;100577.66;5053653;28;20215;-75
2023/04/09 01:58:20;;;;;;;0.87;0.87;;;;;;;7.49;100.00;100576.53;5052871;28;20204;-75
2023/04/09 02:00:49;;;;;;;0.50;0.50;;;;;;;7.38;100.00;100567.53;5034107;28;20238;-75
2023/04/09 02:03:21;;;;;;;0.80;0.80;;;;;;;7.42;100.00;100577.13;5052859;28;20274;-75
2023/04/09 02:05:55;;;;;;;0.90;0.90;;;;;;;7.41;100.00;100570.25;5034044;28;20667;-75
2023/04/09 02:08:23;;;;;;;5.03;2.40;;;;;;;7.39;100.00;100577.03;5034078;28;20681;-74
2023/04/09 02:10:54;;;;;;;1.00;1.00;;;;;;;7.38;100.00;100577.00;5052944;28;20214;-74
2023/04/09 02:13:21;;;;;;;0.63;0.63;;;;;;;7.28;100.00;100575.78;5052566;28;20219;-74
2023/04/09 02:15:50;;;;;;;0.67;0.67;;;;;;;7.35;100.00;100582.91;5050693;28;20195;-75
2023/04/09 02:18:27;;;;;;;0.70;0.70;;;;;;;7.24;100.00;100555.84;5017352;28;20286;-74
2023/04/09 02:20:54;;;;;;;0.90;0.90;;;;;;;7.23;100.00;100582.47;5052983;28;20249;-77
2023/04/09 02:23:21;;;;;;;0.70;0.70;;;;;;;7.15;100.00;100576.16;5052654;28;20200;-73
2023/04/09 02:25:48;;;;;;;0.73;0.73;;;;;;;7.06;100.00;100568.09;5052910;28;20282;-74
2023/04/09 02:28:15;;;;;;;0.90;0.90;;;;;;;7.02;100.00;100562.78;5052514;28;20191;-75
2023/04/09 02:30:42;;;;;;;0.70;0.70;;;;;;;7.13;100.00;100585.56;5052827;28;20265;-74
2023/04/09 02:33:09;;;;;;;0.70;0.70;;;;;;;7.05;100.00;100584.38;5052862;28;20231;-74
2023/04/09 02:35:37;;;;;;;0.80;0.80;;;;;;;7.07;100.00;100580.16;5052758;28;20200;-75
2023/04/09 02:38:04;;;;;;;0.80;0.80;;;;;;;6.96;100.00;100582.34;5052422;28;20200;-75
2023/04/09 02:40:30;;;;;;;0.80;0.80;;;;;;;6.99;100.00;100586.75;5052826;28;20195;-75
2023/04/09 02:42:57;;;;;;;0.80;0.80;;;;;;;6.98;100.00;100579.81;5052084;28;20188;-76
2023/04/09 02:45:24;;;;;;;0.80;0.80;;;;;;;6.95;100.00;100577.13;5052755;28;20265;-77
2023/04/09 02:47:51;;;;;;;0.70;0.70;;;;;;;6.98;100.00;100578.13;5052169;28;20675;-76
2023/04/09 02:50:18;;;;;;;1.23;1.23;;;;;;;7.00;100.00;100575.59;5052409;28;20536;-75
2023/04/09 02:52:47;;;;;;;0.77;0.77;;;;;;;6.98;100.00;100570.41;5052414;28;20199;-75
2023/04/09 02:55:14;;;;;;;1.00;1.00;;;;;;;6.89;100.00;100584.63;5052573;28;20206;-75
2023/04/09 02:57:41;;;;;;;0.80;0.80;;;;;;;6.88;100.00;100580.31;5052121;28;20195;-76
2023/04/09 03:00:11;;;;;;;0.80;0.80;;;;;;;6.97;100.00;100585.78;5052022;28;20238;-75
2023/04/09 03:02:38;;;;;;;0.70;0.70;;;;;;;6.73;100.00;100569.41;5016972;28;20196;-75
2023/04/09 03:05:06;;;;;;;0.70;0.70;;;;;;;6.82;100.00;100573.22;5052350;28;20269;-74
2023/04/09 03:07:32;;;;;;;1.37;1.37;;;;;;;6.71;100.00;100574.50;5052068;28;20207;-75
2023/04/09 03:10:01;;;;;;;1.33;1.33;;;;;;;6.75;100.00;100568.66;5052322;28;20211;-75
2023/04/09 03:12:27;;;;;;;0.60;0.60;;;;;;;6.58;100.00;100561.97;5051278;28;20196;-75
2023/04/09 03:14:54;;;;;;;0.80;0.80;;;;;;;6.67;100.00;100571.78;5051830;28;20230;-75
2023/04/09 03:17:24;;;;;;;0.80;0.80;;;;;;;6.53;100.00;100572.94;5051790;28;20207;-75
2023/04/09 03:19:51;;;;;;;0.83;0.83;;;;;;;6.51;100.00;100567.72;5051836;28;20269;-75
2023/04/09 03:22:18;;;;;;;0.70;0.70;;;;;;;6.31;100.00;100538.59;5051215;28;20203;-75
2023/04/09 03:24:45;;;;;;;0.80;0.80;;;;;;;6.61;100.00;100587.84;5052188;28;20196;-74
2023/04/09 03:27:13;;;;;;;1.00;1.00;;;;;;;6.74;100.00;100584.06;5051750;28;20206;-74
2023/04/09 03:29:39;;;;;;;0.80;0.80;;;;;;;6.66;100.00;100588.91;5051412;28;20609;-75
2023/04/09 03:32:06;;;;;;;0.70;0.70;;;;;;;6.61;100.00;100594.69;5016328;28;20557;-75
2023/04/09 03:34:33;;;;;;;0.80;0.80;;;;;;;6.58;100.00;100594.59;5051501;28;20227;-75
2023/04/09 03:37:00;;;;;;;0.73;0.73;;;;;;;6.53;100.00;100596.13;5051586;28;20225;-75
2023/04/09 03:39:29;;;;;;;0.70;0.70;;;;;;;6.53;100.00;100590.97;5032789;28;20195;-75
2023/04/09 03:41:56;;;;;;;0.77;0.77;;;;;;;6.44;100.00;100571.75;5051504;28;20203;-74
2023/04/09 03:44:25;;;;;;;0.50;0.50;;;;;;;6.62;100.00;100592.19;5051105;28;20206;-75
2023/04/09 03:46:51;;;;;;;0.77;0.77;;;;;;;6.59;100.00;100594.66;5049122;28;20196;-75
2023/04/09 03:49:18;;;;;;;0.93;0.93;;;;;;;6.62;100.00;100604.19;5050940;28;20618;-75
2023/04/09 03:51:45;;;;;;;0.80;0.80;;;;;;;6.59;100.00;100602.38;5051526;28;20223;-75
2023/04/09 03:54:11;;;;;;;1.00;1.00;;;;;;;6.65;100.00;100605.19;5015965;28;20230;-74
2023/04/09 03:56:38;;;;;;;0.80;0.80;;;;;;;6.75;100.00;100606.41;5015713;28;20302;-74
2023/04/09 03:59:05;;;;;;;1.00;1.00;;;;;;;6.88;100.00;100618.97;5049783;28;20222;-75
2023/04/09 04:01:33;;;;;;;0.90;0.90;;;;;;;6.97;100.00;100615.03;5051410;28;20231;-75
2023/04/09 04:04:00;;;;;;;4.33;1.67;;;;;;;6.90;100.00;100617.31;5050744;28;20222;-76
2023/04/09 04:06:27;;;;;;;0.80;0.80;;;;;;;6.90;100.00;100625.03;5051460;28;20211;-75
2023/04/09 04:08:54;;;;;;;0.93;0.93;;;;;;;6.83;100.00;100602.44;5050768;28;20219;-76
2023/04/09 04:11:20;;;;;;;0.60;0.60;;;;;;;7.07;100.00;100620.53;5050241;28;20260;-76
2023/04/09 04:13:47;;;;;;;0.60;0.60;;;;;;;7.21;100.00;100620.22;5050039;28;20226;-71
2023/04/09 04:16:14;;;;;;;0.73;0.73;;;;;;;7.36;100.00;100615.63;5050339;28;20199;-76
2023/04/09 04:18:42;;;;;;;0.80;0.80;;;;;;;7.54;100.00;100619.69;5050566;28;20196;-75
2023/04/09 04:21:13;;;;;;;0.90;0.90;;;;;;;7.65;100.00;100624.41;5050549;28;20203;-75
2023/04/09 04:23:40;;;;;;;0.80;0.80;;;;;;;7.70;100.00;100629.75;5050529;28;20242;-75
2023/04/09 04:26:08;;;;;;;0.80;0.80;;;;;;;7.67;100.00;100616.72;5050500;28;20244;-76
2023/04/09 04:28:35;;;;;;;1.10;1.10;;;;;;;7.74;100.00;100627.28;5050570;28;20187;-76
2023/04/09 04:31:02;;;;;;;0.83;0.83;;;;;;;7.76;100.00;100611.88;5031978;28;20187;-76
2023/04/09 04:33:29;;;;;;;0.80;0.80;;;;;;;7.87;100.00;100615.69;5050716;28;20199;-76
2023/04/09 04:36:06;;;;;;;0.70;0.70;;;;;;;7.79;100.00;100589.63;5015520;28;20203;-75
2023/04/09 04:38:33;;;;;;;0.70;0.70;;;;;;;7.84;100.00;100626.81;5015472;28;20230;-75
2023/04/09 04:41:00;;;;;;;0.80;0.80;;;;;;;7.42;100.00;100577.13;5050683;28;20606;-74
2023/04/09 04:43:26;;;;;;;6.53;4.10;;;;;;;7.90;100.00;100628.72;5050114;28;20199;-75
2023/04/09 04:45:53;;;;;;;1.47;1.47;;;;;;;7.80;100.00;100624.06;5050702;28;20569;-76
2023/04/09 04:48:20;;;;;;;6.53;3.83;;;;;;;7.32;100.00;100562.16;5047939;28;20627;-76
2023/04/09 04:50:47;;;;;;;0.80;0.80;;;;;;;7.73;100.00;100627.25;5050522;28;20221;-77
2023/04/09 04:53:15;;;;;;;0.70;0.70;;;;;;;7.81;100.00;100633.56;5050119;28;20616;-73
2023/04/09 04:55:42;;;;;;;0.90;0.90;;;;;;;7.45;100.00;100548.00;5050797;28;20219;-75
2023/04/09 04:58:08;;;;;;;1.57;1.57;;;;;;;7.83;100.00;100629.31;5050052;28;20674;-72
2023/04/09 05:00:35;;;;;;;0.80;0.80;;;;;;;7.87;100.00;100626.91;5048692;28;20702;-76
2023/04/09 05:03:02;;;;;;;0.90;0.90;;;;;;;8.05;100.00;100636.97;5051979;28;20766;-77
2023/04/09 05:05:29;;;;;;;1.47;1.47;;;;;;;7.98;100.00;100598.88;5053099;28;20670;-75
2023/04/09 05:07:56;;;;;;;0.90;0.90;;;;;;;7.89;100.00;100559.81;5051670;28;20257;-77
2023/04/09 05:10:24;;;;;;;2.60;2.50;;;;;;;8.50;100.00;100629.88;5048059;28;20208;-79
2023/04/09 05:12:51;;;;;;;2.33;2.23;;;;;;;8.50;100.00;100632.47;5047160;28;20593;-73
2023/04/09 05:15:18;;;;;;;4.53;1.73;;;;;;;8.44;100.00;100583.19;5046426;28;20226;-77
2023/04/09 05:17:45;;;;;;;25.47;5.13;;;;;;;8.83;100.00;100643.88;5015011;28;20690;-77
2023/04/09 05:20:12;;;;;;;1.50;1.43;;;;;;;8.59;100.00;100647.41;5050326;28;20589;-79
2023/04/09 05:22:39;;;;;;;0.80;0.80;;;;;;;8.43;100.00;100636.56;5050250;28;20262;-77
2023/04/09 05:25:07;;;;;;;0.80;0.80;;;;;;;8.86;100.00;100632.75;5053261;28;20204;-77
2023/04/09 05:27:35;;;;;;;1.40;1.40;;;;;;;8.87;100.00;100650.91;5054186;28;20200;-76
2023/04/09 05:30:02;;;;;;;1.47;1.47;;;;;;;8.98;100.00;100658.09;5053090;28;20200;-75
2023/04/09 05:32:29;;;;;;;1.70;1.67;;;;;;;9.01;100.00;100624.56;5018382;28;20200;-76
2023/04/09 05:34:56;;;;;;;8.23;4.87;;;;;;;9.50;100.00;100663.09;5049635;28;20335;-75
2023/04/09 05:37:22;;;;;;;2.30;2.20;;;;;;;9.28;100.00;100638.31;5054048;28;20270;-76
2023/04/09 05:39:49;;;;;;;0.80;0.80;;;;;;;9.01;100.00;100650.44;5035467;28;20210;-75
2023/04/09 05:42:16;;;;;;;1.10;1.10;;;;;;;8.82;100.00;100667.09;5044109;28;20191;-76
2023/04/09 05:44:44;;;;;;;1.00;1.00;;;;;;;9.00;100.00;100669.38;5054353;28;20200;-75
2023/04/09 05:47:11;;;;;;;1.00;1.00;;;;;;;9.05;100.00;100653.16;5057900;28;20199;-76
2023/04/09 05:49:38;;;;;;;1.00;1.00;;;;;;;9.33;100.00;100673.84;5061644;28;20199;-78
2023/04/09 05:52:05;;;;;;;0.80;0.80;;;;;;;9.60;100.00;100662.50;5060115;28;20211;-75
2023/04/09 05:54:31;;;;;;;1.10;1.10;;;;;;;9.68;100.00;100642.91;5060299;28;20227;-75
2023/04/09 05:56:58;;;;;;;1.10;1.10;;;;;;;9.68;100.00;100636.00;5061957;28;20214;-75
2023/04/09 05:59:25;;;;;;;0.60;0.60;;;;;;;9.75;100.00;100652.59;5047813;28;20211;-77
2023/04/09 06:01:54;;;;;;;0.70;0.70;;;;;;;10.15;100.00;100654.56;5052465;28;20301;-75
2023/04/09 06:04:20;;;;;;;0.70;0.70;;;;;;;10.33;100.00;100665.41;5049329;28;20219;-77
2023/04/09 06:06:47;;;;;;;1.67;1.63;;;;;;;10.15;100.00;100676.19;5051379;28;20215;-74
2023/04/09 06:09:14;;;;;;;1.08;1.08;;;;;;;9.89;100.00;100627.94;5050787;28;20265;-75
2023/04/09 06:11:40;;;;;;;0.73;0.73;;;;;;;10.11;100.00;100658.75;5051497;28;20211;-75
2023/04/09 06:14:07;;;;;;;1.08;1.08;;;;;;;9.38;100.00;100562.72;5051947;28;20207;-76
2023/04/09 06:16:35;;;;;;;2.00;1.90;;;;;;;9.79;100.00;100665.66;5051187;28;20206;-76
2023/04/09 06:19:03;;;;;;;4.95;1.50;;;;;;;10.21;100.00;100665.97;5050179;28;20308;-76
2023/04/09 06:21:30;;;;;;;0.60;0.60;;;;;;;10.24;100.00;100671.22;5050611;28;20226;-75
2023/04/09 06:23:57;;;;;;;0.77;0.77;;;;;;;10.22;100.00;100678.09;5051935;28;20230;-74
2023/04/09 06:26:23;;;;;;;0.80;0.80;;;;;;;10.59;100.00;100671.25;5052504;28;20709;-75
2023/04/09 06:28:51;;;;;;;1.08;1.08;;;;;;;10.61;100.00;100682.50;5052027;28;20207;-77
2023/04/09 06:31:17;;;;;;;0.70;0.70;;;;;;;10.47;100.00;100683.88;5049205;28;20246;-77
2023/04/09 06:33:44;;;;;;;1.17;1.17;;;;;;;10.62;100.00;100679.09;5050414;28;20210;-77
2023/04/09 06:36:12;;;;;;;0.88;0.88;;;;;;;10.74;100.00;100694.91;5050800;28;20267;-77
2023/04/09 06:38:39;;;;;;;0.80;0.80;;;;;;;10.92;100.00;100692.75;5037337;28;20211;-79
2023/04/09 06:41:07;;;;;;;0.77;0.77;;;;;;;11.05;100.00;100692.22;5052177;28;20211;-77
2023/04/09 06:43:34;;;;;;;0.60;0.60;;;;;;;10.83;100.00;100679.59;5032919;28;20230;-75
2023/04/09 06:46:01;;;;;;;0.80;0.80;;;;;;;11.01;100.00;100700.78;5052188;28;20207;-77
2023/04/09 06:48:28;;;;;;;1.02;1.02;;;;;;;11.09;100.00;100704.44;5051617;28;20207;-75
2023/04/09 06:50:55;;;;;;;0.70;0.70;;;;;;;10.81;100.00;100700.28;5051461;28;20195;-77
2023/04/09 06:53:23;;;;;;;0.55;0.55;;;;;;;11.04;100.00;100674.91;5051202;28;20273;-73
2023/04/09 06:55:50;;;;;;;0.90;0.90;;;;;;;10.87;100.00;100697.00;5051724;28;20227;-77
2023/04/09 06:58:16;;;;;;;0.93;0.93;;;;;;;10.97;100.00;100688.56;5016022;28;20203;-77
2023/04/09 07:00:43;;;;;;;0.80;0.80;;;;;;;11.05;100.00;100687.03;5051556;28;20321;-75
2023/04/09 07:03:10;;;;;;;0.80;0.80;;;;;;;11.15;100.00;100689.00;5049434;28;20215;-76
2023/04/09 07:05:37;;;;;;;0.70;0.70;;;;;;;11.22;100.00;100680.50;5050873;28;20200;-74
2023/04/09 07:08:04;;;;;;;1.55;1.55;;;;;;;11.12;100.00;100678.53;5050524;28;20202;-76
2023/04/09 07:10:32;;;;;;;0.77;0.77;;;;;;;11.22;100.00;100692.59;5048770;28;20204;-75
2023/04/09 07:12:59;;;;;;;0.80;0.80;;;;;;;11.38;100.00;100689.47;5050603;28;20208;-75
2023/04/09 07:15:26;;;;;;;0.70;0.70;;;;;;;11.34;100.00;100698.06;5051314;28;20227;-76
2023/04/09 07:17:52;;;;;;;0.60;0.60;;;;;;;11.57;100.00;100703.72;5051051;28;20196;-77
2023/04/09 07:20:19;;;;;;;0.70;0.70;;;;;;;11.92;100.00;100705.34;5051045;28;20265;-73
2023/04/09 07:22:46;;;;;;;1.35;1.35;;;;;;;11.81;100.00;100688.66;5050301;28;20211;-76
2023/04/09 07:25:13;;;;;;;0.73;0.73;;;;;;;11.92;100.00;100703.63;5051631;28;20238;-77
2023/04/09 07:27:41;;;;;;;0.80;0.80;;;;;;;12.29;100.00;100697.41;5050711;28;20210;-78
2023/04/09 07:30:09;;;;;;;0.70;0.70;;;;;;;12.51;100.00;100695.16;5031525;28;20207;-76
2023/04/09 07:32:36;;;;;;;1.20;1.20;;;;;;;12.50;100.00;100689.09;5050347;28;20521;-74
2023/04/09 07:35:04;;;;;;;1.05;1.05;;;;;;;12.79;100.00;100700.84;5050197;28;20373;-78
2023/04/09 07:37:30;;;;;;;0.70;0.70;;;;;;;12.79;100.00;100710.38;5049578;28;20227;-76
2023/04/09 07:39:57;;;;;;;0.70;0.70;;;;;;;13.08;100.00;100716.03;5031830;28;20203;-76
2023/04/09 07:42:24;;;;;;;0.80;0.80;;;;;;;13.19;100.00;100730.13;5049416;28;20200;-75
2023/04/09 07:44:52;;;;;;;1.13;1.13;;;;;;;13.10;100.00;100652.75;5016148;28;20204;-76
2023/04/09 07:47:19;;;;;;;0.60;0.60;;;;;;;13.39;100.00;100733.88;5051502;28;20195;-76
2023/04/09 07:49:46;;;;;;;0.70;0.70;;;;;;;13.47;100.00;100731.38;5051108;28;20204;-76
2023/04/09 07:52:12;;;;;;;0.65;0.65;;;;;;;13.24;100.00;100733.66;5050404;28;20203;-76
2023/04/09 07:54:39;;;;;;;0.70;0.70;;;;;;;13.31;100.00;100719.88;5050613;28;20207;-76
2023/04/09 07:57:06;;;;;;;2.75;1.17;;;;;;;13.54;100.00;100738.44;5050791;28;20282;-76
2023/04/09 07:59:35;;;;;;;0.90;0.90;;;;;;;13.81;100.00;100744.88;5050348;28;20242;-76
2023/04/09 08:02:03;;;;;;;0.70;0.70;;;;;;;13.32;100.00;100737.25;5050736;28;20282;-75
2023/04/09 08:04:30;;;;;;;0.90;0.90;;;;;;;13.24;100.00;100742.34;5050449;28;20231;-76
2023/04/09 08:06:56;;;;;;;0.60;0.60;;;;;;;13.44;97.08;100733.97;5050332;28;20199;-76
2023/04/09 08:09:23;;;;;;;0.65;0.65;;;;;;;13.75;96.86;100759.56;5050764;28;20204;-76
2023/04/09 08:11:50;;;;;;;0.70;0.70;;;;;;;13.53;98.83;100747.09;5050559;28;20290;-75
2023/04/09 08:14:18;;;;;;;0.80;0.80;;;;;;;13.72;94.20;100749.97;5051000;28;20206;-75
2023/04/09 08:16:46;;;;;;;0.60;0.60;;;;;;;13.92;90.03;100752.81;5050850;28;20231;-75
2023/04/09 08:19:16;;;;;;;0.80;0.80;;;;;;;14.34;88.72;100719.41;5050780;28;20239;-76
2023/04/09 08:21:43;;;;;;;0.90;0.90;;;;;;;14.45;86.53;100739.56;5050903;28;20698;-75
2023/04/09 08:24:10;;;;;;;0.70;0.70;;;;;;;14.49;86.38;100751.75;5050953;28;20214;-75
2023/04/09 08:26:37;;;;;;;1.13;1.13;;;;;;;14.39;87.24;100746.44;5050773;28;20651;-76
2023/04/09 08:29:04;;;;;;;0.60;0.60;;;;;;;14.59;87.93;100743.16;5050960;28;20199;-77
2023/04/09 08:31:31;;;;;;;0.60;0.60;;;;;;;14.61;83.69;100744.91;5050782;28;20248;-75
2023/04/09 08:33:58;;;;;;;0.60;0.60;;;;;;;14.71;82.77;100740.66;5050426;28;20199;-75
2023/04/09 08:36:26;;;;;;;0.60;0.60;;;;;;;14.97;78.86;100749.59;5050543;28;20234;-75
2023/04/09 08:38:54;;;;;;;0.55;0.55;;;;;;;14.92;78.45;100747.78;5050563;28;20203;-75
2023/04/09 08:41:23;;;;;;;0.70;0.70;;;;;;;14.94;77.72;100751.28;5050804;28;20204;-75
2023/04/09 08:43:51;;;;;;;0.75;0.75;;;;;;;15.07;77.91;100745.28;5032247;28;20201;-76
2023/04/09 08:46:19;;;;;;;0.70;0.70;;;;;;;14.79;74.60;100739.88;5050523;28;20207;-76
2023/04/09 08:48:47;;;;;;;0.60;0.60;;;;;;;15.41;73.60;100749.88;5031973;28;20635;-76
2023/04/09 08:51:14;;;;;;;0.50;0.50;;;;;;;14.98;67.92;100734.78;5050673;28;20195;-72
2023/04/09 08:53:46;;;;;;;1.15;1.15;;;;;;;15.49;66.25;100719.47;5050574;28;20218;-76
2023/04/09 08:56:14;;;;;;;0.60;0.60;;;;;;;15.48;65.51;100730.75;5050235;28;20231;-74
2023/04/09 08:58:43;;;;;;;0.63;0.63;;;;;;;15.68;64.23;100744.84;5051974;28;20200;-74
2023/04/09 09:01:28;;;;;;;0.70;0.70;;;;;;;16.28;63.45;100733.72;5054020;28;20395;-76
2023/04/09 09:03:57;;;;;;;0.65;0.65;;;;;;;15.96;62.82;100703.09;5054648;28;20222;-75
2023/04/09 09:06:27;;;;;;;1.77;1.05;;;;;;;16.42;61.36;100717.16;5054517;28;20600;-75
2023/04/09 09:09:03;;;;;;;0.60;0.60;;;;;;;16.51;61.19;100741.63;5053676;28;20203;-74
2023/04/09 09:11:30;;;;;;;0.70;0.70;;;;;;;16.79;59.52;100747.78;5018364;28;20274;-74
2023/04/09 09:13:58;;;;;;;0.60;0.60;;;;;;;17.01;60.32;100733.81;5048908;28;20795;-75
2023/04/09 09:16:25;;;;;;;0.60;0.60;;;;;;;16.80;58.60;100720.75;5049810;28;20314;-76
2023/04/09 09:18:52;;;;;;;0.65;0.65;;;;;;;16.80;57.98;100718.13;5052416;28;20651;-77
2023/04/09 09:21:19;;;;;;;0.70;0.70;;;;;;;16.64;58.34;100716.34;5050253;28;20637;-76
2023/04/09 09:23:47;;;;;;;0.70;0.70;;;;;;;16.88;56.86;100731.19;5052894;28;20195;-75
2023/04/09 09:26:17;;;;;;;0.60;0.60;;;;;;;16.89;57.52;100723.34;5052517;28;20261;-75
2023/04/09 09:28:44;;;;;;;0.80;0.80;;;;;;;16.89;57.59;100727.69;5053817;28;20211;-75
2023/04/09 09:31:12;;;;;;;0.60;0.60;;;;;;;17.32;55.41;100718.91;5053205;28;20681;-76
2023/04/09 09:33:39;;;;;;;0.70;0.70;;;;;;;17.68;54.12;100728.47;5053525;28;20219;-76
2023/04/09 09:36:08;;;;;;;0.70;0.70;;;;;;;17.43;52.35;100674.31;5049018;28;20255;-76
2023/04/09 09:38:50;;;;;;;0.70;0.70;;;;;;;17.93;53.22;100724.88;5021281;28;20291;-77
2023/04/09 09:41:19;;;;;;;0.60;0.60;;;;;;;17.78;51.57;100724.91;5024285;28;20200;-76
2023/04/09 09:43:46;;;;;;;0.60;0.60;;;;;;;18.24;52.63;100715.94;5053150;28;20277;-76
2023/04/09 09:46:13;;;;;;;0.60;0.60;;;;;;;17.78;52.77;100717.94;5053716;28;20206;-76
2023/04/09 09:48:40;;;;;;;0.60;0.60;;;;;;;17.10;54.66;100710.22;5053483;28;20227;-80
2023/04/09 09:51:09;;;;;;;0.60;0.60;;;;;;;17.78;62.89;100709.19;5053139;28;20207;-76
2023/04/09 09:53:37;;;;;;;0.60;0.60;;;;;;;17.24;55.54;100702.31;5018028;28;20290;-77
2023/04/09 09:56:06;;;;;;;0.50;0.50;;;;;;;17.94;55.17;100717.88;5053237;28;20234;-76
2023/04/09 09:58:37;;;;;;;0.60;0.60;;;;;;;18.39;54.78;100717.59;5054034;28;20211;-79
2023/04/09 10:01:08;;;;;;;0.60;0.60;;;;;;;18.47;53.57;100704.41;5044345;28;20688;-74
2023/04/09 10:03:37;;;;;;;0.60;0.60;;;;;;;18.33;53.09;100704.53;5052958;28;20219;-76
2023/04/09 10:06:04;;;;;;;0.73;0.73;;;;;;;18.20;52.05;100666.09;5049208;28;20206;-74
2023/04/09 10:08:33;;;;;;;0.60;0.60;;;;;;;18.24;52.06;100660.81;5051064;28;20230;-76
2023/04/09 10:11:01;;;;;;;0.60;0.60;;;;;;;18.19;52.24;100703.72;5050395;28;20218;-77
2023/04/09 10:13:32;;;;;;;0.60;0.60;;;;;;;18.16;52.44;100687.97;5051462;28;20740;-78
2023/04/09 10:16:01;;;;;;;0.77;0.77;;;;;;;18.81;50.70;100700.66;5050490;28;20235;-77
2023/04/09 10:18:28;;;;;;;0.70;0.70;;;;;;;18.58;50.42;100689.50;5060127;28;20207;-78
2023/04/09 10:20:58;;;;;;;0.60;0.60;;;;;;;18.43;50.96;100697.44;5057703;28;20207;-76
2023/04/09 10:23:34;;;;;;;0.70;0.70;;;;;;;18.11;50.45;100682.78;5058716;28;20212;-76
2023/04/09 10:26:00;;;;;;;0.80;0.80;;;;;;;17.87;50.03;100693.41;5058080;28;20210;-78
2023/04/09 10:28:27;;;;;;;0.60;0.60;;;;;;;18.27;50.17;100691.41;5052932;28;20199;-79
2023/04/09 10:30:55;;;;;;;0.60;0.60;;;;;;;18.62;49.37;100688.59;5050956;28;20204;-75
2023/04/09 10:33:27;;;;;;;1.98;1.42;;;;;;;19.11;48.81;100697.75;5051454;28;20730;-76
2023/04/09 10:35:55;;;;;;;0.70;0.70;;;;;;;18.92;48.82;100679.53;5052133;28;20227;-73
2023/04/09 10:38:39;;;;;;;1.80;0.98;;;;;;;18.65;48.43;100683.31;5052170;28;20203;-76
2023/04/09 10:41:08;;;;;;;0.60;0.60;;;;;;;18.77;49.64;100670.03;5051324;28;20215;-71
2023/04/09 10:43:36;;;;;;;0.80;0.80;;;;;;;18.24;50.22;100683.56;5051999;28;20227;-70
2023/04/09 10:46:05;;;;;;;0.70;0.70;;;;;;;18.72;49.45;100666.59;5051239;28;20257;-76
2023/04/09 10:48:34;;;;;;;0.60;0.60;;;;;;;19.39;48.40;100676.44;5052111;28;20253;-77
2023/04/09 10:51:05;;;;;;;0.70;0.70;;;;;;;19.45;47.84;100682.50;5051275;28;20211;-76
2023/04/09 10:53:32;;;;;;;0.60;0.60;;;;;;;19.80;47.66;100674.19;5042897;28;20635;-77
2023/04/09 10:56:00;;;;;;;0.60;0.60;;;;;;;19.79;46.71;100647.03;5051657;28;20259;-75
2023/04/09 10:58:27;;;;;;;1.05;1.05;;;;;;;19.37;47.42;100680.84;5051686;28;20210;-74
2023/04/09 11:00:55;;;;;;;0.60;0.60;;;;;;;19.33;47.96;100674.75;5050704;28;20242;-75
2023/04/09 11:03:25;;;;;;;0.50;0.50;;;;;;;20.14;47.50;100670.22;5033055;28;20210;-75
2023/04/09 11:05:57;;;;;;;0.60;0.60;;;;;;;19.87;46.51;100649.53;5013898;28;20290;-75
2023/04/09 11:08:28;;;;;;;0.80;0.80;;;;;;;19.61;46.53;100662.16;5051278;28;20591;-75
2023/04/09 11:10:57;;;;;;;0.50;0.50;;;;;;;19.35;47.46;100640.53;5031672;28;20199;-74
2023/04/09 11:13:24;;;;;;;0.60;0.60;;;;;;;18.58;48.97;100657.97;5051246;28;20211;-75
2023/04/09 11:15:51;;;;;;;0.65;0.65;;;;;;;19.45;48.66;100655.34;5050668;28;20600;-75
2023/04/09 11:18:20;;;;;;;0.60;0.60;;;;;;;20.01;46.76;100650.19;5012546;28;20228;-74
2023/04/09 11:20:47;;;;;;;0.60;0.60;;;;;;;19.43;47.40;100651.88;5050214;28;20196;-76
2023/04/09 11:23:17;;;;;;;0.60;0.60;;;;;;;19.85;46.17;100635.53;5015918;28;20227;-75
2023/04/09 11:25:50;;;;;;;0.60;0.60;;;;;;;19.30;46.43;100646.72;5049871;28;20204;-75
2023/04/09 11:28:18;;;;;;;0.60;0.60;;;;;;;19.57;45.27;100640.28;5050866;28;20238;-75